Time;durP1;ratioP1;P1;durP2;ratioP2;P2;SDS_P1;SDS_P2;PMS_P1;PMS_P2;Temp;Humidity;BMP_temperature;BMP_pressure;BME280_temperature;BME280_humidity;BME280_pressure;Samples;Min_cycle;Max_cycle;Signal;HPM_P1;HPM_P2
2022/03/29 00:00:00;;;;;;;14.40;6.50;;;7.20;99.90;;;;;;4936329;29;20408;-73
2022/03/29 00:02:25;;;;;;;17.60;7.70;;;7.30;99.90;;;;;;4936035;29;20208;-73
2022/03/29 00:04:51;;;;;;;12.00;7.30;;;7.20;99.90;;;;;;4935967;29;20545;-73
2022/03/29 00:07:16;;;;;;;14.87;7.67;;;7.20;99.90;;;;;;4936341;29;20672;-73
2022/03/29 00:09:42;;;;;;;9.93;6.53;;;7.20;99.90;;;;;;4935922;29;20968;-73
2022/03/29 00:12:08;;;;;;;9.00;6.80;;;7.20;99.90;;;;;;4935800;29;20779;-73
2022/03/29 00:14:33;;;;;;;11.53;7.43;;;7.20;99.90;;;;;;4935043;29;20480;-73
2022/03/29 00:16:59;;;;;;;17.43;7.80;;;7.20;99.90;;;;;;4935987;29;20184;-74
2022/03/29 00:19:24;;;;;;;12.40;7.47;;;7.10;99.90;;;;;;4935832;29;20584;-73
2022/03/29 00:21:50;;;;;;;11.40;7.53;;;7.10;99.90;;;;;;4935557;29;20227;-73
2022/03/29 00:24:15;;;;;;;22.40;7.77;;;7.00;99.90;;;;;;4935846;29;20183;-73
2022/03/29 00:26:41;;;;;;;15.00;8.20;;;7.00;99.90;;;;;;4935612;29;20580;-73
2022/03/29 00:29:08;;;;;;;11.90;7.03;;;7.00;99.90;;;;;;4935809;29;20717;-73
2022/03/29 00:31:33;;;;;;;11.77;7.60;;;6.90;99.90;;;;;;4935010;29;20212;-73
2022/03/29 00:33:59;;;;;;;9.60;7.13;;;6.90;99.90;;;;;;4935717;29;20832;-73
2022/03/29 00:36:26;;;;;;;11.80;7.23;;;6.90;99.90;;;;;;4935360;29;20181;-73
2022/03/29 00:38:54;;;;;;;9.97;7.13;;;7.00;99.90;;;;;;4934345;29;20329;-73
2022/03/29 00:41:19;;;;;;;9.80;7.00;;;7.00;99.90;;;;;;4935112;29;20472;-74
2022/03/29 00:43:45;;;;;;;16.37;8.27;;;7.00;99.90;;;;;;4935401;29;20532;-73
2022/03/29 00:46:10;;;;;;;7.87;6.80;;;7.00;99.90;;;;;;4935334;29;20712;-73
2022/03/29 00:48:36;;;;;;;16.93;7.00;;;7.00;99.90;;;;;;4935306;29;20726;-73
2022/03/29 00:51:02;;;;;;;14.67;7.57;;;6.90;99.90;;;;;;4935033;29;20202;-73
2022/03/29 00:53:28;;;;;;;10.73;7.63;;;6.90;99.90;;;;;;4933883;29;20580;-73
2022/03/29 00:55:55;;;;;;;12.00;8.00;;;6.90;99.90;;;;;;4935310;29;20182;-73
2022/03/29 00:58:21;;;;;;;12.00;7.53;;;6.90;99.90;;;;;;4934653;29;20422;-72
2022/03/29 02:31:23;;;;;;;13.53;7.37;;;6.70;99.90;;;;;;5743736;23;20487;-71
2022/03/29 02:33:50;;;;;;;12.77;7.80;;;6.60;99.90;;;;;;4972706;28;20474;-73
2022/03/29 02:36:16;;;;;;;14.40;7.37;;;6.60;99.90;;;;;;4959750;28;20197;-73
2022/03/29 02:38:41;;;;;;;17.20;8.73;;;6.60;99.90;;;;;;4957200;28;20414;-72
2022/03/29 02:41:07;;;;;;;16.10;8.80;;;6.60;99.90;;;;;;4956484;28;20565;-72
2022/03/29 02:43:33;;;;;;;12.57;7.50;;;6.60;99.90;;;;;;4953765;28;20210;-72
2022/03/29 02:45:58;;;;;;;15.43;8.03;;;6.60;99.90;;;;;;4956820;29;20184;-72
2022/03/29 02:48:23;;;;;;;13.10;8.50;;;6.60;99.90;;;;;;4953412;29;20186;-73
2022/03/29 02:50:49;;;;;;;15.40;9.40;;;6.60;99.90;;;;;;4956509;29;20268;-72
2022/03/29 02:53:15;;;;;;;15.63;9.40;;;6.50;99.90;;;;;;4950290;29;20201;-73
2022/03/29 02:55:41;;;;;;;13.47;7.70;;;6.50;99.90;;;;;;4956806;28;20548;-72
2022/03/29 02:58:07;;;;;;;13.07;8.27;;;6.50;99.90;;;;;;4955274;28;20632;-72
2022/03/29 03:00:33;;;;;;;16.73;8.47;;;6.50;99.90;;;;;;4954533;28;20421;-72
2022/03/29 03:03:00;;;;;;;19.20;8.57;;;6.50;99.90;;;;;;4956745;28;20179;-73
2022/03/29 03:05:25;;;;;;;13.10;8.00;;;6.50;99.90;;;;;;4953248;28;20655;-73
2022/03/29 03:07:52;;;;;;;14.57;8.30;;;6.50;99.90;;;;;;4955437;28;20456;-73
2022/03/29 03:10:18;;;;;;;11.07;8.33;;;6.50;99.90;;;;;;4954414;28;20217;-73
2022/03/29 03:12:46;;;;;;;12.57;8.50;;;6.50;99.90;;;;;;4956272;28;20524;-73
2022/03/29 03:15:14;;;;;;;14.73;9.40;;;6.50;99.90;;;;;;4954937;28;20432;-72
2022/03/29 03:17:40;;;;;;;16.00;8.80;;;6.50;99.90;;;;;;4954283;28;20442;-73
2022/03/29 03:20:06;;;;;;;9.87;8.17;;;6.50;99.90;;;;;;4953649;28;20525;-72
2022/03/29 03:22:35;;;;;;;16.63;8.30;;;6.40;99.90;;;;;;4948570;28;20461;-72
2022/03/29 03:25:00;;;;;;;13.80;8.27;;;6.40;99.90;;;;;;4956015;28;20415;-73
2022/03/29 03:27:26;;;;;;;13.27;8.73;;;6.40;99.90;;;;;;4951067;28;20452;-72
2022/03/29 03:29:51;;;;;;;14.60;8.97;;;6.40;99.90;;;;;;4955987;28;20527;-72
2022/03/29 03:32:17;;;;;;;17.80;9.70;;;6.40;99.90;;;;;;4953925;28;20281;-73
2022/03/29 03:34:42;;;;;;;16.53;9.27;;;6.40;99.90;;;;;;4948472;29;20205;-72
2022/03/29 03:37:08;;;;;;;14.23;9.27;;;6.40;99.90;;;;;;4952313;29;20185;-73
2022/03/29 03:39:36;;;;;;;13.27;8.43;;;6.40;99.90;;;;;;4953245;29;20193;-73
2022/03/29 03:42:07;;;;;;;14.87;9.40;;;6.40;99.90;;;;;;4953432;28;20548;-73
2022/03/29 03:44:33;;;;;;;22.97;9.80;;;6.50;99.90;;;;;;4955916;28;20430;-73
2022/03/29 03:47:00;;;;;;;16.57;9.70;;;6.50;99.90;;;;;;4954386;28;20417;-73
2022/03/29 03:49:26;;;;;;;21.73;9.67;;;6.40;99.90;;;;;;4951420;28;20441;-73
2022/03/29 03:51:51;;;;;;;31.47;9.50;;;6.40;99.90;;;;;;4952627;28;21049;-72
2022/03/29 03:54:17;;;;;;;14.10;9.13;;;6.40;99.90;;;;;;4953239;29;20217;-73
2022/03/29 03:56:42;;;;;;;19.73;9.47;;;6.40;99.90;;;;;;4944488;29;20190;-72
2022/03/29 03:59:08;;;;;;;15.93;10.40;;;6.40;99.90;;;;;;4944419;29;20202;-72
2022/03/29 04:01:34;;;;;;;13.40;9.50;;;6.30;99.90;;;;;;4951564;29;20677;-73
2022/03/29 04:04:00;;;;;;;17.03;9.63;;;6.30;99.90;;;;;;4952230;28;20281;-73
2022/03/29 04:06:25;;;;;;;25.30;17.50;;;6.30;99.90;;;;;;4954035;28;20512;-72
2022/03/29 04:08:51;;;;;;;28.70;17.23;;;6.30;99.90;;;;;;4952932;29;20185;-73
2022/03/29 04:11:16;;;;;;;22.17;12.73;;;6.30;99.90;;;;;;4953567;29;20212;-72
2022/03/29 04:13:42;;;;;;;15.73;12.20;;;6.30;99.90;;;;;;4955148;29;20221;-73
2022/03/29 04:16:08;;;;;;;22.87;11.73;;;6.20;99.90;;;;;;4945725;29;20661;-73
2022/03/29 04:18:34;;;;;;;17.30;10.60;;;6.20;99.90;;;;;;4955252;29;20231;-73
2022/03/29 04:21:01;;;;;;;17.33;11.07;;;6.20;99.90;;;;;;4950360;28;20257;-73
2022/03/29 04:23:27;;;;;;;17.30;11.40;;;6.20;99.90;;;;;;4949569;29;20811;-73
2022/03/29 04:25:52;;;;;;;18.13;10.37;;;6.30;99.90;;;;;;4953792;28;20442;-71
2022/03/29 04:28:19;;;;;;;16.63;11.40;;;6.20;99.90;;;;;;4954742;29;20178;-73
2022/03/29 04:30:44;;;;;;;17.53;11.27;;;6.10;99.90;;;;;;4953411;28;20612;-72
2022/03/29 04:33:10;;;;;;;15.30;10.00;;;6.10;99.90;;;;;;4948311;29;20473;-73
2022/03/29 04:35:35;;;;;;;25.33;14.17;;;6.10;99.90;;;;;;4950666;29;20189;-73
2022/03/29 04:38:01;;;;;;;15.30;11.13;;;6.00;99.90;;;;;;4952686;29;20191;-72
2022/03/29 04:40:26;;;;;;;16.30;10.03;;;6.00;99.90;;;;;;4955185;29;20848;-72
2022/03/29 04:42:52;;;;;;;27.90;11.30;;;5.90;99.90;;;;;;4951200;28;20214;-72
2022/03/29 04:45:19;;;;;;;15.70;10.93;;;5.90;99.90;;;;;;4955934;29;20234;-73
2022/03/29 04:47:46;;;;;;;22.40;10.90;;;5.90;99.90;;;;;;4952310;28;20329;-72
2022/03/29 04:50:13;;;;;;;15.73;10.77;;;5.90;99.90;;;;;;4955145;29;20414;-72
2022/03/29 04:52:44;;;;;;;14.80;10.73;;;5.90;99.90;;;;;;4948939;28;20482;-72
2022/03/29 04:55:10;;;;;;;18.07;9.30;;;5.90;99.90;;;;;;4954457;28;20792;-72
2022/03/29 04:57:36;;;;;;;19.90;11.63;;;5.90;99.90;;;;;;4953197;28;20407;-71
2022/03/29 05:00:02;;;;;;;23.33;11.37;;;5.90;99.90;;;;;;4952070;28;21101;-72
2022/03/29 05:02:28;;;;;;;21.23;11.17;;;5.90;99.90;;;;;;4953844;28;20319;-72
2022/03/29 05:04:53;;;;;;;22.10;10.23;;;5.90;99.90;;;;;;4949845;29;20476;-71
2022/03/29 05:07:19;;;;;;;19.33;10.13;;;5.90;99.90;;;;;;4951666;29;20201;-72
2022/03/29 05:09:44;;;;;;;21.50;10.93;;;6.00;99.90;;;;;;4950818;29;20307;-71
2022/03/29 05:12:10;;;;;;;18.30;9.63;;;6.00;99.90;;;;;;4953531;29;20230;-72
2022/03/29 05:14:36;;;;;;;18.00;9.70;;;6.00;99.90;;;;;;4953020;29;20184;-70
2022/03/29 05:17:02;;;;;;;13.97;10.10;;;6.00;99.90;;;;;;4951022;28;20235;-72
2022/03/29 05:19:27;;;;;;;14.47;9.60;;;6.00;99.90;;;;;;4949333;28;20444;-72
2022/03/29 05:21:53;;;;;;;17.90;9.57;;;6.00;99.90;;;;;;4951158;29;20473;-71
2022/03/29 05:24:19;;;;;;;16.37;10.17;;;6.00;99.90;;;;;;4953567;29;20186;-71
2022/03/29 05:26:44;;;;;;;19.10;10.80;;;5.90;99.90;;;;;;4949744;28;20192;-74
2022/03/29 05:29:11;;;;;;;24.47;10.10;;;6.00;99.90;;;;;;4953707;28;20182;-74
2022/03/29 05:31:37;;;;;;;14.00;10.20;;;6.00;99.90;;;;;;4951257;28;20276;-74
2022/03/29 05:34:03;;;;;;;30.47;10.47;;;6.00;99.90;;;;;;4946898;28;20439;-75
2022/03/29 05:36:28;;;;;;;20.27;11.37;;;6.10;99.90;;;;;;4949561;28;20956;-74
2022/03/29 05:38:54;;;;;;;19.33;10.80;;;6.10;99.90;;;;;;4952459;28;20205;-74
2022/03/29 05:41:20;;;;;;;20.13;10.70;;;6.20;99.90;;;;;;4951335;28;20292;-74
2022/03/29 05:43:47;;;;;;;21.30;11.43;;;6.30;99.90;;;;;;4953306;28;20249;-74
2022/03/29 05:48:57;;;;;;;19.23;11.00;;;6.40;99.90;;;;;;4951120;29;20466;-74
2022/03/29 05:51:24;;;;;;;18.07;11.40;;;6.50;99.90;;;;;;4952856;28;20982;-74
2022/03/29 05:53:52;;;;;;;20.50;10.03;;;6.60;99.90;;;;;;4952765;29;20212;-74
2022/03/29 05:56:18;;;;;;;25.60;11.00;;;6.70;99.90;;;;;;4953843;28;20429;-72
2022/03/29 05:58:43;;;;;;;18.40;11.00;;;6.80;99.90;;;;;;4949060;28;20493;-75
2022/03/29 06:01:09;;;;;;;18.83;11.93;;;6.90;99.90;;;;;;4953157;29;20202;-74
2022/03/29 06:03:35;;;;;;;17.07;10.33;;;7.00;99.90;;;;;;4952043;28;20187;-74
2022/03/29 06:06:00;;;;;;;20.67;10.50;;;7.00;99.90;;;;;;4953384;29;20186;-74
2022/03/29 06:08:26;;;;;;;17.53;11.70;;;7.10;99.90;;;;;;4947969;28;20559;-73
2022/03/29 06:10:53;;;;;;;22.27;11.40;;;7.30;99.90;;;;;;4953014;28;20207;-73
2022/03/29 06:13:19;;;;;;;23.93;10.10;;;7.40;99.90;;;;;;4956741;28;20312;-74
2022/03/29 06:15:44;;;;;;;25.43;12.33;;;7.50;99.90;;;;;;4956185;29;20881;-73
2022/03/29 06:18:10;;;;;;;30.97;12.60;;;7.60;99.90;;;;;;4957082;28;20552;-73
2022/03/29 06:20:35;;;;;;;22.13;11.70;;;7.90;99.90;;;;;;4952820;29;20190;-73
2022/03/29 06:23:01;;;;;;;19.47;11.30;;;8.10;99.90;;;;;;4950389;29;20535;-74
2022/03/29 06:25:26;;;;;;;20.30;12.10;;;8.30;99.90;;;;;;4953677;28;20227;-75
2022/03/29 06:27:54;;;;;;;29.13;12.10;;;8.40;99.90;;;;;;4957149;29;20254;-75
2022/03/29 06:30:20;;;;;;;25.80;12.20;;;8.50;99.90;;;;;;4955698;28;20198;-75
2022/03/29 06:32:51;;;;;;;21.00;12.37;;;8.60;99.90;;;;;;4952911;28;20492;-74
2022/03/29 06:35:23;;;;;;;25.10;12.10;;;8.70;99.90;;;;;;4953620;29;20268;-73
2022/03/29 06:37:55;;;;;;;24.57;13.17;;;9.00;99.90;;;;;;4952210;29;20418;-74
2022/03/29 06:40:22;;;;;;;24.07;12.97;;;9.10;99.90;;;;;;4956533;28;20411;-75
2022/03/29 06:42:49;;;;;;;22.27;14.00;;;9.10;99.90;;;;;;4953448;28;20486;-74
2022/03/29 06:45:15;;;;;;;23.13;12.60;;;9.20;99.90;;;;;;4956715;28;20417;-75
2022/03/29 06:47:41;;;;;;;16.80;12.00;;;9.30;99.90;;;;;;4953376;29;20454;-74
2022/03/29 06:50:08;;;;;;;24.93;12.93;;;9.40;99.90;;;;;;4956754;28;20551;-74
2022/03/29 06:52:38;;;;;;;19.67;12.00;;;9.50;99.90;;;;;;4953849;28;20472;-71
2022/03/29 06:55:07;;;;;;;22.63;11.70;;;9.60;99.90;;;;;;4952087;29;20449;-73
2022/03/29 06:57:33;;;;;;;26.13;13.03;;;9.70;99.90;;;;;;4953196;28;20518;-74
2022/03/29 06:59:58;;;;;;;21.90;13.53;;;9.60;99.90;;;;;;4956556;29;20874;-74
2022/03/29 07:02:24;;;;;;;26.53;12.43;;;9.70;99.90;;;;;;4955548;29;20198;-74
2022/03/29 07:04:51;;;;;;;22.17;12.70;;;9.80;99.90;;;;;;4955770;29;20184;-74
2022/03/29 07:07:16;;;;;;;25.77;11.73;;;9.90;99.90;;;;;;4954508;28;20615;-74
2022/03/29 07:11:16;;;;;;;28.90;13.00;;;10.00;99.90;;;;;;4954179;28;20537;-74
2022/03/29 07:12:47;;;;;;;20.90;12.47;;;10.10;99.90;;;;;;4955900;29;20278;-75
2022/03/29 07:15:13;;;;;;;20.33;12.70;;;10.20;99.90;;;;;;4952107;28;20434;-74
2022/03/29 07:17:38;;;;;;;22.57;14.50;;;10.20;99.90;;;;;;4956524;28;20416;-74
2022/03/29 07:20:04;;;;;;;35.23;15.07;;;10.30;99.90;;;;;;4953390;29;20187;-74
2022/03/29 07:22:30;;;;;;;20.07;11.60;;;10.50;99.90;;;;;;4953875;28;20216;-74
2022/03/29 07:24:55;;;;;;;37.37;13.77;;;10.60;99.90;;;;;;4954954;29;20437;-75
2022/03/29 07:27:21;;;;;;;19.93;12.80;;;10.80;99.90;;;;;;4953409;29;20204;-74
2022/03/29 07:29:47;;;;;;;20.83;12.90;;;10.90;99.90;;;;;;4955033;29;20192;-74
2022/03/29 07:32:12;;;;;;;19.97;10.80;;;11.10;99.90;;;;;;4954285;29;20259;-74
2022/03/29 07:34:38;;;;;;;24.73;12.47;;;11.20;99.90;;;;;;4951993;28;20195;-73
2022/03/29 07:37:05;;;;;;;26.63;11.67;;;11.40;99.90;;;;;;4950273;29;20189;-74
2022/03/29 07:39:30;;;;;;;22.60;13.07;;;11.60;99.90;;;;;;4956051;28;20169;-74
2022/03/29 07:41:56;;;;;;;22.53;12.37;;;11.90;99.90;;;;;;4952901;29;20973;-74
2022/03/29 07:44:22;;;;;;;26.10;13.53;;;12.20;99.90;;;;;;4956416;28;20173;-74
2022/03/29 07:46:47;;;;;;;24.13;13.17;;;12.40;99.90;;;;;;4955077;28;20200;-75
2022/03/29 07:49:13;;;;;;;25.77;12.07;;;12.60;99.90;;;;;;4954585;29;20193;-74
2022/03/29 07:51:39;;;;;;;24.57;14.10;;;12.90;99.90;;;;;;4952039;28;20586;-74
2022/03/29 07:54:05;;;;;;;17.83;13.07;;;13.10;99.90;;;;;;4952484;29;20181;-74
2022/03/29 07:56:31;;;;;;;26.03;13.17;;;13.20;99.90;;;;;;4955355;28;20412;-74
2022/03/29 07:58:57;;;;;;;18.87;12.80;;;13.40;99.90;;;;;;4951404;28;20436;-74
2022/03/29 08:01:23;;;;;;;27.37;13.67;;;13.50;99.90;;;;;;4955083;28;20690;-74
2022/03/29 08:03:49;;;;;;;25.30;13.20;;;13.80;99.90;;;;;;4952157;29;20626;-74
2022/03/29 08:06:14;;;;;;;21.80;14.03;;;14.00;99.90;;;;;;4955431;28;20181;-74
2022/03/29 08:08:41;;;;;;;21.00;12.67;;;14.20;99.90;;;;;;4949883;29;20481;-74
2022/03/29 08:11:08;;;;;;;21.90;13.80;;;14.40;99.90;;;;;;4955079;28;20671;-74
2022/03/29 08:13:36;;;;;;;26.57;13.70;;;14.50;99.90;;;;;;4952820;28;20468;-74
2022/03/29 08:16:02;;;;;;;24.57;14.73;;;14.50;99.90;;;;;;4955192;28;20784;-74
2022/03/29 08:18:29;;;;;;;26.27;14.37;;;14.80;99.90;;;;;;4953833;29;20511;-75
2022/03/29 08:20:54;;;;;;;27.10;14.83;;;15.40;99.90;;;;;;4951749;28;20180;-75
2022/03/29 08:23:20;;;;;;;28.17;13.50;;;15.70;99.90;;;;;;4952624;29;20551;-75
2022/03/29 08:25:46;;;;;;;24.00;14.77;;;16.00;99.90;;;;;;4951816;29;20195;-75
2022/03/29 08:28:13;;;;;;;23.37;13.00;;;16.40;99.90;;;;;;4954902;28;20231;-75
2022/03/29 08:30:39;;;;;;;20.10;12.57;;;16.60;99.90;;;;;;4950950;28;20958;-75
2022/03/29 08:33:05;;;;;;;28.53;13.17;;;16.80;99.90;;;;;;4952846;29;20507;-75
2022/03/29 08:35:31;;;;;;;26.60;13.27;;;17.00;99.90;;;;;;4949203;28;20471;-75
2022/03/29 08:37:57;;;;;;;21.40;13.53;;;16.90;99.90;;;;;;4952347;28;20781;-75
2022/03/29 08:40:26;;;;;;;25.63;14.00;;;17.00;99.90;;;;;;4953339;28;20459;-72
2022/03/29 08:42:54;;;;;;;20.83;13.27;;;17.00;99.90;;;;;;4951638;28;20983;-75
2022/03/29 08:45:26;;;;;;;27.43;14.70;;;17.10;99.90;;;;;;4953284;28;20427;-75
2022/03/29 08:47:56;;;;;;;27.20;15.10;;;17.20;99.90;;;;;;4953387;28;20487;-75
2022/03/29 08:50:23;;;;;;;20.40;13.60;;;16.90;99.90;;;;;;4954489;28;20413;-75
2022/03/29 08:52:51;;;;;;;20.50;14.20;;;16.90;99.90;;;;;;4946545;28;20507;-75
2022/03/29 08:55:16;;;;;;;30.97;14.33;;;16.70;99.90;;;;;;4954515;28;20408;-75
2022/03/29 08:57:42;;;;;;;25.50;14.20;;;16.70;99.90;;;;;;4951120;29;20458;-75
2022/03/29 09:00:08;;;;;;;21.50;14.10;;;16.50;99.90;;;;;;4954327;29;20232;-75
2022/03/29 09:02:35;;;;;;;24.83;14.30;;;16.50;99.90;;;;;;4952793;28;20558;-75
2022/03/29 09:05:21;;;;;;;24.00;13.10;;;16.60;99.90;;;;;;4951091;28;20976;-75
2022/03/29 09:07:54;;;;;;;26.30;14.00;;;16.80;99.90;;;;;;4951970;28;20504;-75
2022/03/29 09:10:23;;;;;;;19.27;12.30;;;17.00;99.90;;;;;;4954158;28;20794;-75
2022/03/29 09:12:49;;;;;;;15.63;10.77;;;17.30;99.90;;;;;;4952688;28;20590;-75
2022/03/29 09:15:15;;;;;;;17.73;12.30;;;17.50;99.90;;;;;;4950860;28;20510;-76
2022/03/29 09:17:46;;;;;;;19.17;12.27;;;17.50;99.90;;;;;;4954073;28;20475;-75
2022/03/29 09:20:21;;;;;;;18.37;12.33;;;17.50;99.80;;;;;;4950830;28;20531;-76
2022/03/29 09:22:49;;;;;;;19.53;12.40;;;17.50;99.80;;;;;;4951454;28;20893;-75
2022/03/29 09:25:38;;;;;;;23.17;12.90;;;17.50;99.90;;;;;;4950580;28;20439;-75
2022/03/29 09:28:13;;;;;;;19.20;11.30;;;17.40;99.60;;;;;;4951059;29;20433;-76
2022/03/29 09:30:43;;;;;;;18.10;11.57;;;17.60;99.90;;;;;;4950296;28;20546;-75
2022/03/29 09:33:14;;;;;;;19.27;11.57;;;17.80;98.00;;;;;;4952396;28;20575;-76
2022/03/29 09:35:59;;;;;;;18.50;10.50;;;18.00;97.70;;;;;;4948913;29;20432;-75
2022/03/29 09:38:30;;;;;;;19.73;11.10;;;18.20;98.40;;;;;;4951156;29;20420;-75
2022/03/29 09:40:57;;;;;;;18.60;11.73;;;18.80;98.90;;;;;;4950285;28;20460;-75
2022/03/29 09:43:25;;;;;;;19.07;12.37;;;19.00;97.10;;;;;;4953626;28;20407;-75
2022/03/29 09:45:53;;;;;;;18.37;11.60;;;18.70;96.80;;;;;;4951724;28;20987;-75
2022/03/29 09:48:32;;;;;;;21.10;11.33;;;18.90;96.50;;;;;;4951332;28;20440;-75
2022/03/29 09:51:17;;;;;;;17.43;10.77;;;19.50;97.90;;;;;;4949959;29;21030;-77
2022/03/29 09:53:52;;;;;;;29.70;11.30;;;20.10;96.10;;;;;;4951799;29;20478;-76
2022/03/29 09:56:28;;;;;;;19.40;11.70;;;20.40;96.40;;;;;;4951339;28;20937;-76
2022/03/29 09:59:06;;;;;;;19.73;11.50;;;20.50;95.50;;;;;;4950432;28;20432;-77
2022/03/29 10:01:32;;;;;;;16.37;12.23;;;20.80;95.50;;;;;;4951533;28;20849;-73
2022/03/29 10:04:01;;;;;;;17.53;12.20;;;21.10;93.30;;;;;;4951436;29;20435;-76
2022/03/29 10:06:27;;;;;;;22.20;11.37;;;21.10;93.60;;;;;;4953275;28;20408;-76
2022/03/29 10:11:43;;;;;;;18.10;11.67;;;21.10;92.20;;;;;;4953458;29;20488;-75
2022/03/29 10:14:12;;;;;;;15.53;10.63;;;21.00;91.70;;;;;;4950013;28;20502;-74
2022/03/29 10:16:38;;;;;;;15.83;12.20;;;21.00;91.70;;;;;;4953365;28;20459;-75
2022/03/29 10:19:04;;;;;;;16.27;12.63;;;21.20;92.00;;;;;;4949750;28;20437;-75
2022/03/29 10:21:30;;;;;;;19.67;12.00;;;20.80;90.20;;;;;;4952195;29;20463;-75
2022/03/29 10:23:58;;;;;;;17.80;12.20;;;20.60;90.70;;;;;;4947602;28;20424;-75
2022/03/29 10:26:26;;;;;;;19.97;11.40;;;20.20;90.00;;;;;;4951895;29;20432;-74
2022/03/29 10:28:52;;;;;;;19.40;10.70;;;20.10;90.50;;;;;;4951959;28;20429;-75
2022/03/29 10:31:31;;;;;;;18.77;10.87;;;20.20;90.20;;;;;;4949593;28;20468;-75
2022/03/29 10:34:12;;;;;;;18.10;12.77;;;20.50;91.50;;;;;;4949121;28;20572;-74
2022/03/29 10:37:00;;;;;;;20.10;12.70;;;20.60;92.00;;;;;;4951927;29;20420;-75
2022/03/29 10:39:57;;;;;;;22.50;13.67;;;20.60;90.30;;;;;;4950718;29;20424;-75
2022/03/29 10:42:42;;;;;;;18.63;13.23;;;20.70;90.60;;;;;;4946353;28;20467;-75
2022/03/29 10:45:13;;;;;;;19.80;13.50;;;20.50;88.40;;;;;;4950749;28;20437;-75
2022/03/29 10:47:41;;;;;;;19.03;12.37;;;20.60;88.30;;;;;;4953114;29;20984;-75
2022/03/29 10:50:10;;;;;;;20.30;11.67;;;20.70;88.90;;;;;;4952847;28;20791;-75
2022/03/29 10:52:40;;;;;;;23.50;13.67;;;20.50;88.00;;;;;;4945912;29;20555;-74
2022/03/29 10:55:27;;;;;;;22.20;13.27;;;20.70;90.80;;;;;;4949867;29;20466;-75
2022/03/29 10:58:08;;;;;;;21.30;12.57;;;20.80;90.90;;;;;;4952147;28;20427;-75
2022/03/29 11:00:36;;;;;;;16.47;11.60;;;20.70;90.50;;;;;;4956536;28;20439;-76
2022/03/29 11:03:21;;;;;;;22.60;12.83;;;20.60;86.70;;;;;;4952060;28;20523;-76
2022/03/29 11:06:14;;;;;;;21.47;13.03;;;20.60;87.70;;;;;;4956803;28;20423;-76
2022/03/29 11:08:41;;;;;;;15.27;11.67;;;20.70;84.40;;;;;;4953145;28;20439;-76
2022/03/29 11:11:27;;;;;;;21.73;12.90;;;20.80;87.30;;;;;;4956146;28;20439;-75
2022/03/29 11:13:53;;;;;;;19.50;13.23;;;21.00;86.50;;;;;;4951587;29;20480;-76
2022/03/29 11:16:31;;;;;;;19.90;13.53;;;21.20;84.00;;;;;;4956276;29;20451;-75
2022/03/29 11:18:58;;;;;;;22.13;12.93;;;21.20;85.80;;;;;;4954280;28;20195;-75
2022/03/29 11:21:32;;;;;;;21.53;15.30;;;21.30;85.70;;;;;;4955886;28;20995;-74
2022/03/29 11:24:00;;;;;;;23.10;14.57;;;21.50;87.00;;;;;;4950467;28;20448;-75
2022/03/29 11:26:26;;;;;;;26.20;16.20;;;21.50;84.90;;;;;;4956542;28;20527;-75
2022/03/29 11:28:54;;;;;;;31.13;14.80;;;21.60;83.70;;;;;;4954022;28;20518;-74
2022/03/29 11:31:21;;;;;;;17.87;13.47;;;21.60;84.10;;;;;;4955599;28;20224;-73
2022/03/29 11:33:51;;;;;;;25.10;13.70;;;21.70;85.40;;;;;;4951258;28;20475;-73
2022/03/29 11:36:20;;;;;;;26.73;14.27;;;21.70;85.70;;;;;;4952751;28;20444;-72
2022/03/29 11:38:46;;;;;;;18.50;14.10;;;21.60;85.80;;;;;;4953086;28;20440;-73
2022/03/29 11:41:29;;;;;;;24.03;14.50;;;21.60;86.70;;;;;;4947706;28;20490;-74
2022/03/29 11:44:07;;;;;;;23.27;13.90;;;21.50;86.00;;;;;;4950968;28;20412;-73
2022/03/29 11:47:02;;;;;;;23.73;14.10;;;21.50;84.50;;;;;;4952591;29;20534;-74
2022/03/29 11:49:28;;;;;;;23.37;13.97;;;21.20;85.10;;;;;;4950975;29;20432;-73
2022/03/29 11:52:11;;;;;;;23.20;14.80;;;21.10;83.00;;;;;;4952327;28;20460;-72
2022/03/29 11:54:45;;;;;;;19.73;13.37;;;21.10;84.40;;;;;;4955030;29;20412;-75
2022/03/29 11:57:30;;;;;;;22.83;13.63;;;21.20;86.30;;;;;;4951118;28;20440;-75
2022/03/29 11:59:57;;;;;;;28.20;15.57;;;21.30;86.60;;;;;;4955724;28;20430;-75
2022/03/29 12:02:25;;;;;;;18.80;14.37;;;21.50;84.50;;;;;;4951781;28;20874;-75
2022/03/29 12:04:51;;;;;;;26.73;15.00;;;21.20;82.80;;;;;;4955561;28;20484;-75
2022/03/29 12:07:44;;;;;;;21.53;13.77;;;21.20;82.50;;;;;;4951913;28;20471;-75
2022/03/29 12:10:11;;;;;;;24.50;14.90;;;20.80;85.60;;;;;;4935536;29;20413;-75
2022/03/29 12:12:37;;;;;;;22.63;14.10;;;20.70;85.10;;;;;;4940261;29;20518;-76
2022/03/29 12:15:05;;;;;;;25.37;15.90;;;20.50;85.00;;;;;;4955453;29;20444;-75
2022/03/29 12:17:30;;;;;;;22.87;15.20;;;20.30;85.60;;;;;;4953907;28;20190;-75
2022/03/29 12:19:56;;;;;;;24.27;16.77;;;20.40;87.60;;;;;;4945230;28;20441;-75
2022/03/29 12:22:23;;;;;;;22.27;14.50;;;20.50;84.50;;;;;;4936296;29;20213;-75
2022/03/29 12:24:55;;;;;;;26.37;15.47;;;20.50;86.90;;;;;;4951605;29;20544;-75
2022/03/29 12:27:21;;;;;;;27.10;14.93;;;20.50;87.60;;;;;;4955066;28;20937;-75
2022/03/29 12:29:51;;;;;;;27.90;14.83;;;20.60;86.20;;;;;;4950513;28;21028;-74
2022/03/29 12:32:17;;;;;;;22.97;14.47;;;20.30;84.30;;;;;;4954374;28;20475;-75
2022/03/29 12:34:43;;;;;;;23.73;14.63;;;20.10;84.20;;;;;;4951887;28;20463;-75
2022/03/29 12:37:16;;;;;;;29.60;14.40;;;20.20;85.20;;;;;;4952318;28;20428;-75
2022/03/29 12:39:44;;;;;;;26.80;15.90;;;20.10;83.80;;;;;;4950882;29;20797;-75
2022/03/29 12:42:12;;;;;;;20.57;14.43;;;19.90;82.00;;;;;;4954435;28;20507;-75
2022/03/29 12:44:46;;;;;;;24.23;14.93;;;19.80;82.80;;;;;;4951936;28;20447;-75
2022/03/29 12:47:13;;;;;;;23.27;15.67;;;19.70;82.40;;;;;;4935468;29;20436;-75
2022/03/29 12:49:41;;;;;;;21.70;14.90;;;19.60;82.70;;;;;;4935255;29;20444;-75
2022/03/29 12:52:09;;;;;;;24.40;15.37;;;19.90;85.30;;;;;;4947682;29;20468;-75
2022/03/29 12:54:37;;;;;;;25.40;15.80;;;20.00;85.60;;;;;;4946193;29;20452;-75
2022/03/29 12:57:05;;;;;;;26.93;15.43;;;20.00;82.30;;;;;;4951286;28;20470;-75
2022/03/29 12:59:34;;;;;;;29.70;15.80;;;20.00;82.60;;;;;;4954471;28;20405;-75
2022/03/29 13:02:19;;;;;;;25.83;15.40;;;19.90;82.30;;;;;;4950849;28;20467;-75
2022/03/29 13:04:50;;;;;;;25.87;16.47;;;19.90;84.70;;;;;;4954493;28;20412;-75
2022/03/29 13:07:50;;;;;;;34.83;16.47;;;19.70;83.30;;;;;;4948137;28;20437;-75
2022/03/29 13:10:26;;;;;;;28.87;16.10;;;19.60;83.00;;;;;;4948239;29;20436;-75
2022/03/29 13:13:05;;;;;;;31.13;15.80;;;19.60;83.00;;;;;;4950816;28;20486;-75
2022/03/29 13:15:47;;;;;;;23.07;15.23;;;19.40;82.30;;;;;;4955281;28;20444;-75
2022/03/29 13:18:35;;;;;;;28.33;16.57;;;19.50;83.70;;;;;;4954292;28;20445;-75
2022/03/29 13:21:24;;;;;;;29.13;15.40;;;19.60;84.70;;;;;;4936347;29;20433;-75
2022/03/29 13:23:51;;;;;;;34.47;16.47;;;19.40;82.50;;;;;;4937917;29;20475;-75
2022/03/29 13:26:19;;;;;;;31.63;15.27;;;19.50;82.90;;;;;;4953911;29;20774;-75
2022/03/29 13:28:46;;;;;;;24.70;15.50;;;19.60;84.80;;;;;;4950862;28;20472;-75
2022/03/29 13:31:15;;;;;;;29.43;15.23;;;19.60;84.10;;;;;;4952195;28;20468;-75
2022/03/29 13:33:48;;;;;;;27.03;16.23;;;19.50;83.40;;;;;;4950119;29;20481;-75
2022/03/29 13:36:17;;;;;;;32.63;16.37;;;19.50;82.70;;;;;;4953718;28;20416;-75
2022/03/29 13:38:44;;;;;;;28.23;16.33;;;19.30;82.20;;;;;;4949280;28;20964;-75
2022/03/29 13:41:11;;;;;;;35.40;18.00;;;19.30;83.60;;;;;;4952829;29;20471;-75
2022/03/29 13:43:37;;;;;;;27.97;16.80;;;19.30;84.30;;;;;;4953748;28;20421;-75
2022/03/29 13:46:04;;;;;;;29.03;16.40;;;19.30;83.90;;;;;;4950339;28;20444;-75
2022/03/29 13:48:30;;;;;;;25.93;16.57;;;19.20;85.20;;;;;;4953696;28;20420;-75
2022/03/29 13:50:57;;;;;;;26.10;17.73;;;19.30;84.70;;;;;;4948829;28;20499;-75
2022/03/29 13:53:23;;;;;;;38.73;17.60;;;19.30;84.30;;;;;;4951535;29;20248;-75
2022/03/29 13:55:49;;;;;;;31.63;17.20;;;19.40;84.20;;;;;;4949851;29;20775;-75
2022/03/29 13:58:15;;;;;;;39.70;17.87;;;19.40;84.00;;;;;;4953415;28;20451;-75
2022/03/29 14:00:42;;;;;;;26.67;16.90;;;19.40;82.50;;;;;;4951916;28;20464;-75
2022/03/29 14:03:08;;;;;;;28.60;15.53;;;19.30;86.00;;;;;;4950149;28;20212;-75
2022/03/29 14:05:41;;;;;;;28.30;15.83;;;19.40;85.70;;;;;;4952958;28;20511;-75
2022/03/29 14:08:08;;;;;;;29.13;17.50;;;19.40;84.90;;;;;;4948379;29;20939;-75
2022/03/29 14:10:34;;;;;;;29.60;16.77;;;19.40;84.00;;;;;;4950023;28;20568;-75
2022/03/29 14:13:02;;;;;;;27.00;16.90;;;19.40;85.00;;;;;;4948677;28;20843;-75
2022/03/29 14:15:28;;;;;;;34.90;17.70;;;19.50;84.70;;;;;;4953312;28;20439;-75